createdAt,value
2018-09-03T00:01:55.089Z,29.33
2018-09-03T00:04:24.316Z,31.43
2018-09-03T00:06:53.566Z,28.30
2018-09-03T00:09:22.761Z,25.50
2018-09-03T00:11:52.825Z,36.63
2018-09-03T00:14:22.124Z,29.83
2018-09-03T00:16:51.390Z,33.13
2018-09-03T00:19:20.639Z,27.97
2018-09-03T00:21:49.834Z,29.50
2018-09-03T00:24:19.059Z,31.80
2018-09-03T00:26:48.298Z,28.60
2018-09-03T00:29:17.617Z,23.27
2018-09-03T00:31:51.823Z,38.93
2018-09-03T00:34:26.183Z,38.67
2018-09-03T00:37:00.575Z,35.70
2018-09-03T00:39:34.925Z,27.50
2018-09-03T00:42:09.196Z,32.67
2018-09-03T00:44:43.469Z,25.20
2018-09-03T00:47:13.002Z,31.73
2018-09-03T00:49:42.332Z,25.87
2018-09-03T00:52:11.566Z,34.90
2018-09-03T00:54:40.964Z,27.73
2018-09-03T00:57:10.211Z,27.00
2018-09-03T00:59:39.476Z,22.90
2018-09-03T01:02:08.808Z,32.77
2018-09-03T01:04:38.034Z,35.40
2018-09-03T01:07:07.396Z,33.50
2018-09-03T01:09:36.639Z,20.27
2018-09-03T01:12:05.896Z,27.23
2018-09-03T01:14:35.138Z,24.03
2018-09-03T01:17:04.448Z,27.97
2018-09-03T01:19:33.651Z,30.53
2018-09-03T01:22:02.846Z,27.53
2018-09-03T01:24:32.068Z,28.23
2018-09-03T01:27:01.272Z,37.37
2018-09-03T01:29:30.536Z,34.90
2018-09-03T01:31:59.762Z,34.30
2018-09-03T01:34:29.014Z,33.40
2018-09-03T01:36:58.204Z,30.33
2018-09-03T01:39:27.447Z,27.97
2018-09-03T01:41:56.747Z,34.80
2018-09-03T01:44:25.975Z,36.30
2018-09-03T01:46:55.206Z,31.07
2018-09-03T01:49:24.394Z,34.00
2018-09-03T01:51:54.063Z,28.93
2018-09-03T01:54:24.084Z,33.30
2018-09-03T01:56:53.413Z,39.50
2018-09-03T01:59:22.675Z,30.90
2018-09-03T02:01:51.929Z,34.47
2018-09-03T02:04:21.181Z,33.37
2018-09-03T02:06:50.404Z,36.53
2018-09-03T02:09:19.683Z,32.53
2018-09-03T02:11:48.940Z,36.53
2018-09-03T02:14:18.124Z,32.30
2018-09-03T02:16:47.395Z,35.37
2018-09-03T02:19:16.575Z,31.67
2018-09-03T02:21:45.814Z,34.47
2018-09-03T02:24:15.083Z,44.23
2018-09-03T02:26:44.422Z,31.27
2018-09-03T02:29:13.678Z,29.00
2018-09-03T02:31:42.921Z,36.70
2018-09-03T02:34:12.122Z,32.63
2018-09-03T02:36:41.422Z,35.07
2018-09-03T02:39:10.641Z,34.10
2018-09-03T02:41:39.816Z,28.60
2018-09-03T02:44:09.038Z,39.10
2018-09-03T02:46:38.284Z,38.67
2018-09-03T02:49:07.882Z,33.37
2018-09-03T02:51:37.107Z,38.63
2018-09-03T02:54:06.465Z,44.97
2018-09-03T02:56:35.776Z,45.20
2018-09-03T02:59:05.053Z,38.03
2018-09-03T03:01:34.304Z,28.73
2018-09-03T03:04:03.546Z,33.57
2018-09-03T03:06:32.771Z,26.43
2018-09-03T03:09:02.055Z,34.10
2018-09-03T03:11:32.211Z,29.70
2018-09-03T03:14:01.420Z,28.77
2018-09-03T03:16:30.788Z,31.57
2018-09-03T03:19:00.025Z,29.10
2018-09-03T03:21:29.287Z,34.40
2018-09-03T03:23:58.535Z,37.97
2018-09-03T03:26:28.407Z,33.77
2018-09-03T03:28:57.655Z,29.40
2018-09-03T03:31:26.858Z,28.00
2018-09-03T03:33:56.141Z,35.53
2018-09-03T03:36:25.391Z,30.43
2018-09-03T03:38:54.635Z,31.93
2018-09-03T03:41:23.856Z,35.93
2018-09-03T03:43:53.194Z,29.93
2018-09-03T03:46:22.429Z,30.77
2018-09-03T03:48:51.909Z,23.90
2018-09-03T03:51:21.145Z,29.53
2018-09-03T03:53:50.397Z,30.57
2018-09-03T03:56:19.650Z,38.63
2018-09-03T03:58:48.969Z,28.10
2018-09-03T04:01:18.822Z,27.73
2018-09-03T04:03:48.016Z,30.87
2018-09-03T04:06:17.308Z,26.77
2018-09-03T04:08:46.563Z,34.03
2018-09-03T04:11:15.775Z,31.97
2018-09-03T04:13:45.048Z,39.40
2018-09-03T04:16:14.270Z,32.73
2018-09-03T04:18:43.495Z,28.30
2018-09-03T04:21:12.744Z,25.73
2018-09-03T04:23:41.965Z,29.40
2018-09-03T04:26:11.185Z,31.60
2018-09-03T04:28:40.412Z,28.20
2018-09-03T04:31:09.694Z,30.50
2018-09-03T04:33:38.918Z,28.50
2018-09-03T04:36:08.243Z,32.33
2018-09-03T04:38:38.092Z,27.53
2018-09-03T04:41:07.332Z,42.87
2018-09-03T04:43:36.744Z,30.77
2018-09-03T04:46:06.094Z,26.60
2018-09-03T04:48:35.315Z,38.10
2018-09-03T04:51:04.583Z,43.87
2018-09-03T04:53:33.802Z,61.40
2018-09-03T04:56:03.058Z,63.03
2018-09-03T04:58:32.245Z,56.53
2018-09-03T05:01:01.456Z,64.30
2018-09-03T05:03:30.751Z,64.70
2018-09-03T05:06:00.067Z,67.57
2018-09-03T05:08:29.309Z,59.77
2018-09-03T05:10:58.594Z,51.97
2018-09-03T05:13:27.891Z,59.57
2018-09-03T05:15:57.120Z,54.43
2018-09-03T05:18:26.448Z,53.60
2018-09-03T05:20:55.779Z,62.17
2018-09-03T05:23:25.066Z,52.63
2018-09-03T05:25:54.341Z,55.43
2018-09-03T05:28:23.586Z,48.60
2018-09-03T05:30:52.878Z,56.97
2018-09-03T05:33:22.263Z,66.47
2018-09-03T05:35:51.489Z,55.53
2018-09-03T05:38:20.804Z,58.07
2018-09-03T05:40:49.991Z,59.40
2018-09-03T05:43:19.277Z,51.90
2018-09-03T05:45:48.484Z,52.73
2018-09-03T05:48:17.717Z,51.43
2018-09-03T05:50:46.952Z,51.13
2018-09-03T05:53:18.352Z,51.57
2018-09-03T05:55:47.650Z,57.57
2018-09-03T05:58:16.895Z,45.47
2018-09-03T06:00:46.358Z,57.03
2018-09-03T06:03:15.994Z,53.97
2018-09-03T06:05:45.214Z,50.67
2018-09-03T06:08:15.084Z,53.50
2018-09-03T06:10:44.983Z,49.03
2018-09-03T06:13:15.115Z,56.43
2018-09-03T06:15:47.087Z,51.77
2018-09-03T06:18:19.337Z,50.70
2018-09-03T06:20:50.220Z,56.33
2018-09-03T06:23:24.625Z,49.33
2018-09-03T06:25:59.036Z,51.23
2018-09-03T06:28:32.239Z,46.77
2018-09-03T06:31:01.745Z,46.30
2018-09-03T06:33:32.463Z,44.50
2018-09-03T06:36:02.313Z,48.80
2018-09-03T06:38:31.842Z,42.47
2018-09-03T06:41:01.726Z,44.13
2018-09-03T06:43:32.051Z,41.70
2018-09-03T06:46:02.208Z,40.70
2018-09-03T06:48:32.112Z,42.43
2018-09-03T06:51:01.600Z,42.13
2018-09-03T06:53:31.242Z,42.00
2018-09-03T06:56:00.654Z,38.30
2018-09-03T06:58:29.868Z,37.87
2018-09-03T07:01:00.735Z,41.00
2018-09-03T07:03:29.901Z,42.17
2018-09-03T07:05:59.202Z,39.43
2018-09-03T07:08:29.252Z,34.43
2018-09-03T07:10:58.832Z,36.20
2018-09-03T07:13:30.498Z,30.03
2018-09-03T07:16:02.381Z,30.70
2018-09-03T07:18:35.073Z,28.73
2018-09-03T07:21:06.504Z,24.83
2018-09-03T07:23:38.202Z,21.63
2018-09-03T07:26:08.832Z,22.77
2018-09-03T07:28:38.517Z,20.43
2018-09-03T07:31:07.842Z,22.23
2018-09-03T07:33:37.353Z,17.87
2018-09-03T07:36:06.983Z,23.90
2018-09-03T07:38:36.442Z,21.47
2018-09-03T07:41:12.057Z,24.13
2018-09-03T07:43:43.856Z,19.77
2018-09-03T07:46:13.105Z,19.50
2018-09-03T07:48:42.354Z,19.40
2018-09-03T07:51:11.681Z,19.67
2018-09-03T07:53:41.145Z,15.50
2018-09-03T07:56:10.411Z,18.67
2018-09-03T07:58:39.781Z,17.40
2018-09-03T08:01:09.036Z,23.60
2018-09-03T08:03:38.276Z,16.80
2018-09-03T08:06:07.511Z,16.60
2018-09-03T08:08:36.776Z,15.67
2018-09-03T08:11:06.262Z,18.27
2018-09-03T08:13:39.724Z,21.00
2018-09-03T08:16:12.220Z,21.93
2018-09-03T08:18:42.138Z,16.50
2018-09-03T08:21:11.463Z,16.63
2018-09-03T08:23:40.718Z,18.60
2018-09-03T08:26:10.915Z,19.13
2018-09-03T08:28:40.147Z,20.70
2018-09-03T08:31:09.467Z,21.80
2018-09-03T08:33:38.663Z,22.30
2018-09-03T08:36:07.898Z,22.00
2018-09-03T08:38:37.069Z,22.03
2018-09-03T08:41:06.360Z,18.70
2018-09-03T08:43:35.540Z,26.90
2018-09-03T08:46:05.406Z,23.10
2018-09-03T08:48:34.582Z,18.87
2018-09-03T08:51:03.811Z,19.30
2018-09-03T08:53:33.009Z,17.90
2018-09-03T08:56:03.200Z,19.00
2018-09-03T08:58:32.527Z,15.50
2018-09-03T09:01:01.777Z,13.20
2018-09-03T09:03:36.244Z,13.60
2018-09-03T09:06:05.494Z,15.43
2018-09-03T09:08:34.777Z,15.20
2018-09-03T09:11:04.064Z,13.97
2018-09-03T09:13:33.274Z,14.23
2018-09-03T09:16:02.502Z,11.67
2018-09-03T09:18:31.760Z,11.80
2018-09-03T09:21:01.000Z,14.03
2018-09-03T09:23:30.300Z,12.17
2018-09-03T09:25:59.570Z,10.90
2018-09-03T09:28:28.804Z,9.70
2018-09-03T09:30:58.109Z,11.00
2018-09-03T09:33:27.578Z,11.87
2018-09-03T09:35:56.955Z,11.87
2018-09-03T09:38:26.328Z,12.73
2018-09-03T09:40:55.576Z,11.07
2018-09-03T09:43:24.838Z,12.30
2018-09-03T09:45:54.079Z,11.80
2018-09-03T09:48:23.318Z,13.50
2018-09-03T09:50:52.538Z,11.27
2018-09-03T09:53:21.837Z,9.67
2018-09-03T09:55:51.032Z,11.43
2018-09-03T09:58:20.279Z,12.07
2018-09-03T10:00:54.618Z,9.03
2018-09-03T10:03:23.907Z,10.43
2018-09-03T10:05:53.242Z,12.67
2018-09-03T10:08:22.459Z,11.33
2018-09-03T10:10:51.754Z,7.40
2018-09-03T10:13:20.971Z,8.93
2018-09-03T10:15:52.491Z,10.60
2018-09-03T10:18:21.691Z,7.80
2018-09-03T10:20:51.077Z,9.33
2018-09-03T10:23:20.776Z,6.53
2018-09-03T10:25:50.003Z,5.90
2018-09-03T10:28:19.226Z,8.37
2018-09-03T10:30:48.421Z,8.53
2018-09-03T10:33:17.726Z,8.20
2018-09-03T10:35:46.953Z,6.77
2018-09-03T10:38:16.273Z,6.97
2018-09-03T10:40:45.517Z,6.93
2018-09-03T10:43:15.103Z,6.63
2018-09-03T10:45:48.015Z,7.60
2018-09-03T10:48:18.409Z,6.97
2018-09-03T10:50:47.724Z,5.67
2018-09-03T10:53:16.985Z,5.80
2018-09-03T10:55:46.182Z,4.57
2018-09-03T10:58:15.384Z,6.43
2018-09-03T11:00:44.654Z,5.20
2018-09-03T11:03:13.842Z,4.53
2018-09-03T11:05:43.063Z,5.87
2018-09-03T11:08:12.284Z,5.60
2018-09-03T11:10:41.510Z,5.73
2018-09-03T11:13:10.802Z,5.40
2018-09-03T11:15:40.075Z,5.00
2018-09-03T11:18:09.273Z,4.13
2018-09-03T11:20:38.524Z,3.40
2018-09-03T11:23:07.790Z,4.93
2018-09-03T11:25:37.095Z,5.37
2018-09-03T11:28:06.519Z,3.67
2018-09-03T11:30:35.830Z,3.33
2018-09-03T11:33:05.085Z,3.60
2018-09-03T11:35:34.458Z,3.53
2018-09-03T11:38:03.620Z,4.40
2018-09-03T11:40:32.991Z,4.50
2018-09-03T11:43:02.245Z,5.30
2018-09-03T11:45:31.551Z,4.10
2018-09-03T11:48:00.830Z,4.67
2018-09-03T11:50:30.026Z,3.87
2018-09-03T11:52:59.230Z,3.80
2018-09-03T11:55:28.439Z,3.30
2018-09-03T11:57:57.764Z,2.87
2018-09-03T12:00:28.829Z,4.40
2018-09-03T12:02:58.466Z,4.83
2018-09-03T12:05:28.444Z,4.33
2018-09-03T12:07:57.771Z,3.90
2018-09-03T12:10:27.105Z,4.23
2018-09-03T12:12:56.396Z,4.10
2018-09-03T12:15:33.517Z,5.03
2018-09-03T12:18:04.222Z,4.40
2018-09-03T12:20:33.650Z,6.13
2018-09-03T12:23:03.023Z,4.40
2018-09-03T12:25:32.298Z,3.93
2018-09-03T12:28:01.543Z,3.93
2018-09-03T12:30:30.724Z,4.67
2018-09-03T12:33:00.146Z,4.40
2018-09-03T12:35:29.358Z,3.77
2018-09-03T12:37:58.593Z,4.90
2018-09-03T12:40:27.899Z,3.90
2018-09-03T12:42:57.205Z,3.83
2018-09-03T12:45:31.684Z,4.67
2018-09-03T12:48:00.968Z,3.90
2018-09-03T12:50:30.138Z,5.10
2018-09-03T12:52:59.374Z,3.73
2018-09-03T12:55:28.704Z,4.03
2018-09-03T12:57:57.951Z,3.80
2018-09-03T13:00:27.318Z,4.00
2018-09-03T13:02:56.715Z,3.83
2018-09-03T13:05:25.959Z,4.50
2018-09-03T13:07:55.227Z,5.63
2018-09-03T13:10:25.432Z,3.23
2018-09-03T13:12:54.635Z,4.73
2018-09-03T13:15:24.109Z,4.80
2018-09-03T13:17:53.432Z,3.50
2018-09-03T13:20:22.602Z,3.80
2018-09-03T13:22:51.914Z,3.70
2018-09-03T13:25:21.449Z,5.90
2018-09-03T13:27:50.662Z,4.03
2018-09-03T13:30:19.970Z,6.20
2018-09-03T13:32:49.161Z,4.20
2018-09-03T13:35:18.516Z,5.63
2018-09-03T13:37:47.860Z,3.90
2018-09-03T13:40:17.108Z,4.40
2018-09-03T13:42:46.328Z,4.37
2018-09-03T13:45:15.580Z,5.67
2018-09-03T13:47:44.807Z,4.60
2018-09-03T13:50:14.022Z,4.13
2018-09-03T13:52:43.876Z,5.73
2018-09-03T13:55:13.325Z,4.67
2018-09-03T13:57:42.668Z,4.17
2018-09-03T14:00:12.916Z,5.20
2018-09-03T14:02:42.422Z,3.60
2018-09-03T14:05:11.738Z,4.47
2018-09-03T14:07:41.820Z,6.97
2018-09-03T14:10:11.390Z,4.80
2018-09-03T14:12:40.706Z,6.67
2018-09-03T14:15:10.136Z,4.00
2018-09-03T14:17:39.500Z,4.43
2018-09-03T14:20:08.887Z,3.10
2018-09-03T14:22:38.164Z,4.00
2018-09-03T14:25:07.498Z,3.87
2018-09-03T14:27:36.804Z,5.20
2018-09-03T14:30:06.441Z,4.50
2018-09-03T14:32:35.752Z,4.10
2018-09-03T14:35:05.275Z,3.80
2018-09-03T14:37:34.672Z,4.00
2018-09-03T14:40:04.175Z,4.70
2018-09-03T14:42:33.641Z,4.43
2018-09-03T14:45:03.032Z,5.00
2018-09-03T14:47:32.288Z,4.50
2018-09-03T14:50:01.688Z,6.97
2018-09-03T14:52:31.012Z,3.80
2018-09-03T14:55:00.396Z,3.90
2018-09-03T14:57:29.701Z,4.27
2018-09-03T14:59:59.108Z,3.50
2018-09-03T15:02:28.393Z,3.50
2018-09-03T15:04:57.611Z,4.83
2018-09-03T15:07:26.834Z,5.10
2018-09-03T15:09:56.146Z,4.13
2018-09-03T15:12:25.417Z,4.20
2018-09-03T15:14:54.610Z,6.60
2018-09-03T15:17:23.996Z,5.90
2018-09-03T15:19:53.551Z,3.53
2018-09-03T15:22:23.012Z,4.17
2018-09-03T15:24:52.312Z,3.37
2018-09-03T15:27:21.583Z,7.53
2018-09-03T15:29:51.021Z,5.77
2018-09-03T15:32:20.358Z,4.57
2018-09-03T15:34:49.663Z,5.50
2018-09-03T15:37:18.955Z,4.30
2018-09-03T15:39:48.329Z,4.80
2018-09-03T15:42:17.680Z,4.43
2018-09-03T15:44:47.100Z,4.73
2018-09-03T15:47:17.186Z,4.50
2018-09-03T15:49:46.474Z,5.47
2018-09-03T15:52:15.815Z,5.07
2018-09-03T15:54:45.575Z,4.87
2018-09-03T15:57:14.765Z,6.13
2018-09-03T15:59:44.137Z,4.97
2018-09-03T16:02:13.365Z,6.10
2018-09-03T16:04:42.689Z,4.70
2018-09-03T16:07:12.134Z,5.63
2018-09-03T16:09:41.329Z,5.27
2018-09-03T16:12:10.622Z,4.07
2018-09-03T16:14:39.904Z,5.13
2018-09-03T16:17:09.288Z,5.80
2018-09-03T16:19:38.596Z,5.87
2018-09-03T16:22:08.158Z,8.87
2018-09-03T16:24:37.546Z,5.10
2018-09-03T16:27:06.946Z,6.63
2018-09-03T16:29:36.211Z,4.80
2018-09-03T16:32:05.777Z,6.30
2018-09-03T16:34:34.954Z,6.93
2018-09-03T16:37:04.251Z,5.63
2018-09-03T16:39:33.511Z,4.33
2018-09-03T16:42:02.764Z,4.33
2018-09-03T16:44:32.201Z,4.50
2018-09-03T16:47:01.624Z,6.43
2018-09-03T16:49:30.948Z,7.30
2018-09-03T16:52:00.214Z,5.87
2018-09-03T16:54:29.456Z,7.17
2018-09-03T16:57:01.706Z,7.03
2018-09-03T16:59:32.689Z,7.63
2018-09-03T17:02:02.091Z,6.80
2018-09-03T17:04:31.557Z,9.30
2018-09-03T17:07:00.902Z,5.60
2018-09-03T17:09:30.356Z,6.30
2018-09-03T17:11:59.666Z,7.33
2018-09-03T17:14:29.053Z,6.00
2018-09-03T17:16:58.384Z,6.10
2018-09-03T17:19:27.949Z,6.87
2018-09-03T17:21:57.263Z,5.53
2018-09-03T17:24:39.050Z,6.00
2018-09-03T17:27:09.466Z,6.07
2018-09-03T17:46:14.373Z,5.20
2018-09-03T17:48:50.063Z,6.27
2018-09-03T17:51:31.889Z,5.90
2018-09-03T17:54:08.227Z,5.53
2018-09-03T17:56:40.547Z,5.63
2018-09-03T17:59:12.859Z,5.83
2018-09-03T18:01:53.147Z,6.17
2018-09-03T18:07:18.733Z,6.10
2018-09-03T18:09:54.426Z,6.30
2018-09-03T18:12:35.732Z,5.43
2018-09-03T18:15:05.971Z,5.47
2018-09-03T18:17:36.873Z,6.03
2018-09-03T18:20:06.745Z,8.73
2018-09-03T18:22:36.487Z,10.20
2018-09-03T18:25:06.278Z,9.53
2018-09-03T18:27:36.067Z,9.50
2018-09-03T18:30:06.027Z,11.73
2018-09-03T18:32:36.028Z,17.80
2018-09-03T18:35:06.262Z,16.93
2018-09-03T18:37:36.040Z,21.77
2018-09-03T18:40:06.451Z,16.53
2018-09-03T18:42:38.085Z,18.20
2018-09-03T18:45:09.353Z,16.27
2018-09-03T18:47:44.916Z,22.70
2018-09-03T18:50:17.729Z,16.17
2018-09-03T18:58:10.087Z,15.50
2018-09-03T19:00:39.778Z,17.97
2018-09-03T19:03:09.622Z,26.17
2018-09-03T19:05:39.399Z,23.70
2018-09-03T19:08:09.074Z,19.60
2018-09-03T19:10:39.674Z,16.20
2018-09-03T19:13:09.420Z,20.90
2018-09-03T19:15:39.147Z,19.03
2018-09-03T19:18:08.892Z,17.97
2018-09-03T19:20:39.332Z,21.23
2018-09-03T19:23:09.301Z,16.93
2018-09-03T19:25:39.060Z,18.40
2018-09-03T19:28:08.826Z,19.10
2018-09-03T19:30:38.511Z,19.50
2018-09-03T19:33:08.352Z,21.30
2018-09-03T19:35:38.005Z,28.53
2018-09-03T19:38:07.885Z,25.37
2018-09-03T19:40:37.849Z,25.83
2018-09-03T19:43:07.426Z,28.10
2018-09-03T19:45:37.005Z,32.93
2018-09-03T19:48:06.881Z,22.20
2018-09-03T19:50:43.888Z,25.57
2018-09-03T19:53:17.292Z,22.20
2018-09-03T19:55:52.515Z,29.43
2018-09-03T20:00:59.624Z,24.43
2018-09-03T20:03:31.981Z,26.90
2018-09-03T20:06:02.754Z,33.73
2018-09-03T20:08:33.448Z,25.30
2018-09-03T20:11:04.155Z,27.77
2018-09-03T20:13:34.096Z,31.57
2018-09-03T20:16:03.915Z,30.40
2018-09-03T20:18:34.665Z,35.10
2018-09-03T20:21:05.437Z,30.17
2018-09-03T20:23:39.223Z,32.30
2018-09-03T20:26:12.904Z,32.40
2018-09-03T20:28:54.176Z,26.27
2018-09-03T20:31:29.401Z,31.73
2018-09-03T20:33:59.639Z,28.30
2018-09-03T20:39:13.286Z,28.93
2018-09-03T20:41:57.387Z,33.70
2018-09-03T20:47:23.293Z,37.77
2018-09-03T20:49:58.576Z,35.30
2018-09-03T20:52:28.532Z,38.27
2018-09-03T20:54:58.896Z,35.83
2018-09-03T20:57:30.086Z,34.97
2018-09-03T21:00:00.054Z,36.90
2018-09-03T21:02:30.823Z,33.10
2018-09-03T21:05:01.029Z,35.47
2018-09-03T21:07:30.683Z,32.53
2018-09-03T21:10:00.407Z,36.73
2018-09-03T21:12:30.191Z,36.47
2018-09-03T21:14:59.850Z,36.17
2018-09-03T21:17:29.700Z,32.90
2018-09-03T21:20:00.279Z,27.50
2018-09-03T21:22:30.077Z,30.20
2018-09-03T21:24:59.756Z,29.60
2018-09-03T21:27:29.696Z,30.00
2018-09-03T21:29:59.025Z,34.37
2018-09-03T21:32:28.404Z,24.73
2018-09-03T21:34:57.811Z,29.63
2018-09-03T21:37:27.171Z,34.00
2018-09-03T21:39:56.537Z,29.73
2018-09-03T21:42:25.848Z,28.10
2018-09-03T21:44:55.226Z,25.43
2018-09-03T21:47:24.606Z,36.87
2018-09-03T21:49:53.918Z,31.97
2018-09-03T21:52:23.327Z,39.40
2018-09-03T21:54:52.684Z,34.37
2018-09-03T21:57:21.953Z,36.33
2018-09-03T21:59:51.267Z,30.20
2018-09-03T22:02:20.571Z,32.93
2018-09-03T22:04:50.832Z,34.20
2018-09-03T22:07:20.150Z,32.77
2018-09-03T22:09:49.476Z,40.60
2018-09-03T22:12:18.813Z,41.83
2018-09-03T22:14:48.122Z,37.50
2018-09-03T22:17:17.436Z,32.97
2018-09-03T22:19:46.699Z,42.33
2018-09-03T22:22:16.025Z,41.10
2018-09-03T22:24:45.357Z,36.20
2018-09-03T22:27:14.640Z,33.50
2018-09-03T22:29:43.933Z,32.30
2018-09-03T22:32:13.233Z,36.80
2018-09-03T22:34:42.471Z,32.77
2018-09-03T22:37:11.867Z,35.10
2018-09-03T22:39:41.611Z,35.10
2018-09-03T22:42:10.808Z,39.17
2018-09-03T22:44:40.245Z,34.80
2018-09-03T22:47:09.727Z,36.30
2018-09-03T22:49:38.959Z,38.10
2018-09-03T22:52:08.319Z,34.27
2018-09-03T22:54:37.555Z,39.53
2018-09-03T22:57:06.739Z,46.67
2018-09-03T22:59:36.195Z,46.60
2018-09-03T23:02:05.419Z,39.73
2018-09-03T23:04:34.710Z,32.33
2018-09-03T23:07:03.919Z,39.33
2018-09-03T23:09:33.168Z,37.50
2018-09-03T23:12:02.783Z,39.57
2018-09-03T23:14:32.024Z,45.47
2018-09-03T23:17:01.231Z,46.07
2018-09-03T23:19:30.515Z,43.33
2018-09-03T23:21:59.751Z,47.10
2018-09-03T23:24:29.054Z,41.10
2018-09-03T23:26:58.326Z,44.00
2018-09-03T23:29:27.551Z,38.50
2018-09-03T23:31:56.804Z,41.00
2018-09-03T23:34:26.005Z,46.33
2018-09-03T23:36:55.241Z,36.97
2018-09-03T23:39:24.477Z,46.07
2018-09-03T23:41:53.703Z,37.33
2018-09-03T23:44:22.940Z,35.70
2018-09-03T23:46:52.153Z,36.60
2018-09-03T23:49:21.448Z,39.23
2018-09-03T23:51:50.702Z,38.57
2018-09-03T23:54:20.052Z,34.90
2018-09-03T23:56:49.352Z,36.10
2018-09-03T23:59:18.570Z,37.17
